createdAt,value
2023-12-15T00:00:23.069Z,294.80
2023-12-15T00:00:55.652Z,306.70
2023-12-15T00:01:27.939Z,289.60
2023-12-15T00:02:00.420Z,255.80
2023-12-15T00:02:32.914Z,242.50
2023-12-15T00:03:05.399Z,243.90
2023-12-15T00:03:38.365Z,296.70
2023-12-15T00:04:10.861Z,297.70
2023-12-15T00:04:43.272Z,292.30
2023-12-15T00:05:15.785Z,310.30
2023-12-15T00:05:48.251Z,293.60
2023-12-15T00:06:20.731Z,259.50
2023-12-15T00:06:53.174Z,259.00
2023-12-15T00:07:25.641Z,298.90
2023-12-15T00:07:58.221Z,305.90
2023-12-15T00:08:30.712Z,314.90
2023-12-15T00:09:03.211Z,321.80
2023-12-15T00:09:35.731Z,307.40
2023-12-15T00:10:08.196Z,304.20
2023-12-15T00:10:40.680Z,317.10
2023-12-15T00:11:13.200Z,331.20
2023-12-15T00:11:45.639Z,327.80
2023-12-15T00:12:18.071Z,330.10
2023-12-15T00:12:50.513Z,337.40
2023-12-15T00:13:22.978Z,285.10
2023-12-15T00:13:55.532Z,266.90
2023-12-15T00:14:28.001Z,256.50
2023-12-15T00:15:00.421Z,299.40
2023-12-15T00:15:32.893Z,266.60
2023-12-15T00:16:05.340Z,331.30
2023-12-15T00:16:37.794Z,295.30
2023-12-15T00:17:10.294Z,328.80
2023-12-15T00:17:43.222Z,317.10
2023-12-15T00:18:15.350Z,298.50
2023-12-15T00:18:47.803Z,295.90
2023-12-15T00:19:20.303Z,301.30
2023-12-15T00:19:52.752Z,320.70
2023-12-15T00:20:25.258Z,344.20
2023-12-15T00:20:57.630Z,338.90
2023-12-15T00:21:30.070Z,314.20
2023-12-15T00:22:02.551Z,325.10
2023-12-15T00:22:35.073Z,292.80
2023-12-15T00:23:07.550Z,286.50
2023-12-15T00:23:39.935Z,306.30
2023-12-15T00:24:12.398Z,311.90
2023-12-15T00:24:44.887Z,278.70
2023-12-15T00:25:17.372Z,279.50
2023-12-15T00:25:49.909Z,289.50
2023-12-15T00:26:22.387Z,288.00
2023-12-15T00:26:54.920Z,289.40
2023-12-15T00:27:27.362Z,281.50
2023-12-15T00:27:59.793Z,299.10
2023-12-15T00:28:32.300Z,304.30
2023-12-15T00:29:04.798Z,297.70
2023-12-15T00:29:37.157Z,300.00
2023-12-15T00:30:09.727Z,292.80
2023-12-15T00:30:42.198Z,271.40
2023-12-15T00:31:14.656Z,300.10
2023-12-15T00:31:48.010Z,282.40
2023-12-15T00:32:20.535Z,303.80
2023-12-15T00:32:53.064Z,318.60
2023-12-15T00:33:25.545Z,319.10
2023-12-15T00:33:57.974Z,315.10
2023-12-15T00:34:30.493Z,313.90
2023-12-15T00:35:02.981Z,302.30
2023-12-15T00:35:35.443Z,309.50
2023-12-15T00:36:07.848Z,308.80
2023-12-15T00:36:40.362Z,318.40
2023-12-15T00:37:12.911Z,328.40
2023-12-15T00:37:45.345Z,332.10
2023-12-15T00:38:17.865Z,301.50
2023-12-15T00:38:50.308Z,313.10
2023-12-15T00:39:22.958Z,302.20
2023-12-15T00:39:55.451Z,316.80
2023-12-15T00:40:27.944Z,324.30
2023-12-15T00:41:00.454Z,325.30
2023-12-15T00:41:32.971Z,334.60
2023-12-15T00:42:05.424Z,330.20
2023-12-15T00:42:37.836Z,320.20
2023-12-15T00:43:10.293Z,298.60
2023-12-15T00:43:42.720Z,279.50
2023-12-15T00:44:15.176Z,284.10
2023-12-15T00:44:47.629Z,302.70
2023-12-15T00:45:20.150Z,285.20
2023-12-15T00:45:52.627Z,279.40
2023-12-15T00:46:25.138Z,248.90
2023-12-15T00:46:57.709Z,271.30
2023-12-15T00:47:30.230Z,258.50
2023-12-15T00:48:02.701Z,269.70
2023-12-15T00:48:35.263Z,285.40
2023-12-15T00:49:07.669Z,282.60
2023-12-15T00:49:40.020Z,285.00
2023-12-15T00:50:12.457Z,286.70
2023-12-15T00:50:44.883Z,294.80
2023-12-15T00:51:17.310Z,274.50
2023-12-15T00:51:49.741Z,288.10
2023-12-15T00:52:22.221Z,274.10
2023-12-15T00:52:54.698Z,286.20
2023-12-15T00:53:27.213Z,289.90
2023-12-15T00:53:59.672Z,303.80
2023-12-15T00:54:32.116Z,280.60
2023-12-15T00:55:04.523Z,286.20
2023-12-15T00:55:37.023Z,258.90
2023-12-15T00:56:09.543Z,264.70
2023-12-15T00:56:42.004Z,294.70
2023-12-15T00:57:14.462Z,287.00
2023-12-15T00:57:50.793Z,272.00
2023-12-15T00:58:23.270Z,290.30
2023-12-15T00:58:55.831Z,293.70
2023-12-15T00:59:28.335Z,239.50
2023-12-15T01:00:00.801Z,250.70
2023-12-15T01:00:33.331Z,259.30
2023-12-15T01:01:05.778Z,283.20
2023-12-15T01:01:38.180Z,283.30
2023-12-15T01:02:10.641Z,292.40
2023-12-15T01:02:43.100Z,293.60
2023-12-15T01:03:15.597Z,224.70
2023-12-15T01:03:48.071Z,282.40
2023-12-15T01:04:20.548Z,283.00
2023-12-15T01:04:53.182Z,271.30
2023-12-15T01:05:25.586Z,339.10
2023-12-15T01:05:58.166Z,303.30
2023-12-15T01:06:30.638Z,295.00
2023-12-15T01:07:03.140Z,289.70
2023-12-15T01:07:35.947Z,264.30
2023-12-15T01:08:08.190Z,269.10
2023-12-15T01:08:40.616Z,283.80
2023-12-15T01:09:13.068Z,286.00
2023-12-15T01:09:45.541Z,293.10
2023-12-15T01:10:25.763Z,249.50
2023-12-15T01:10:58.242Z,267.70
2023-12-15T01:11:30.784Z,270.60
2023-12-15T01:12:03.184Z,301.00
2023-12-15T01:12:35.605Z,289.70
2023-12-15T01:13:08.130Z,292.60
2023-12-15T01:13:40.581Z,297.10
2023-12-15T01:14:13.119Z,228.60
2023-12-15T01:14:45.595Z,260.50
2023-12-15T01:15:18.031Z,305.70
2023-12-15T01:15:50.483Z,291.20
2023-12-15T01:16:22.930Z,290.20
2023-12-15T01:16:55.462Z,290.10
2023-12-15T01:17:27.982Z,303.10
2023-12-15T01:18:00.638Z,304.80
2023-12-15T01:18:32.985Z,302.90
2023-12-15T01:19:05.494Z,298.60
2023-12-15T01:19:38.014Z,314.00
2023-12-15T01:20:10.570Z,284.80
2023-12-15T01:20:42.945Z,245.10
2023-12-15T01:21:15.369Z,278.90
2023-12-15T01:21:47.814Z,296.50
2023-12-15T01:22:20.337Z,306.70
2023-12-15T01:22:52.889Z,322.50
2023-12-15T01:23:25.329Z,317.30
2023-12-15T01:23:57.771Z,323.90
2023-12-15T01:24:30.266Z,333.30
2023-12-15T01:25:02.751Z,312.70
2023-12-15T01:25:35.254Z,312.00
2023-12-15T01:26:07.736Z,336.00
2023-12-15T01:26:40.209Z,345.50
2023-12-15T01:27:12.659Z,346.20
2023-12-15T01:27:45.080Z,335.00
2023-12-15T01:28:17.571Z,318.80
2023-12-15T01:28:50.075Z,303.10
2023-12-15T01:29:22.547Z,310.00
2023-12-15T01:29:55.015Z,315.10
2023-12-15T01:30:27.492Z,296.90
2023-12-15T01:30:59.891Z,297.40
2023-12-15T01:31:32.315Z,314.20
2023-12-15T01:32:04.829Z,301.90
2023-12-15T01:32:37.359Z,303.80
2023-12-15T01:33:09.765Z,301.40
2023-12-15T01:33:42.257Z,316.80
2023-12-15T01:34:14.780Z,346.50
2023-12-15T01:34:47.190Z,314.50
2023-12-15T01:35:19.726Z,304.60
2023-12-15T01:35:52.088Z,294.50
2023-12-15T01:36:24.560Z,282.80
2023-12-15T01:36:57.060Z,280.50
2023-12-15T01:37:29.479Z,288.40
2023-12-15T01:38:01.958Z,313.30
2023-12-15T01:38:34.464Z,338.10
2023-12-15T01:39:07.030Z,299.50
2023-12-15T01:39:39.570Z,320.00
2023-12-15T01:40:12.122Z,321.30
2023-12-15T01:40:44.584Z,253.20
2023-12-15T01:41:17.149Z,278.00
2023-12-15T01:41:49.523Z,318.40
2023-12-15T01:42:21.948Z,321.90
2023-12-15T01:42:54.373Z,316.40
2023-12-15T01:43:26.819Z,302.60
2023-12-15T01:43:59.370Z,308.10
2023-12-15T01:44:31.885Z,278.50
2023-12-15T01:45:04.421Z,289.40
2023-12-15T01:45:36.730Z,308.50
2023-12-15T01:46:14.818Z,288.00
2023-12-15T01:46:41.638Z,294.80
2023-12-15T01:47:14.091Z,264.50
2023-12-15T01:47:46.610Z,273.50
2023-12-15T01:48:19.011Z,289.40
2023-12-15T01:48:51.537Z,301.50
2023-12-15T01:49:23.925Z,286.10
2023-12-15T01:49:56.379Z,292.70
2023-12-15T01:50:29.625Z,304.70
2023-12-15T01:51:02.092Z,302.70
2023-12-15T01:51:34.564Z,301.50
2023-12-15T01:52:07.110Z,246.50
2023-12-15T01:52:39.626Z,253.50
2023-12-15T01:53:12.157Z,293.20
2023-12-15T01:53:44.725Z,296.20
2023-12-15T01:54:17.158Z,308.20
2023-12-15T01:54:49.707Z,315.20
2023-12-15T01:55:22.197Z,301.70
2023-12-15T01:55:54.716Z,300.30
2023-12-15T01:56:27.235Z,284.70
2023-12-15T01:56:59.749Z,283.90
2023-12-15T01:57:32.233Z,303.80
2023-12-15T01:58:04.958Z,309.50
2023-12-15T01:58:37.388Z,328.80
2023-12-15T01:59:09.936Z,314.80
2023-12-15T01:59:42.308Z,329.90
2023-12-15T02:00:14.794Z,309.60
2023-12-15T02:00:47.341Z,304.80
2023-12-15T02:01:19.767Z,312.70
2023-12-15T02:01:52.248Z,315.10
2023-12-15T02:02:24.768Z,318.80
2023-12-15T02:02:57.277Z,318.70
2023-12-15T02:03:30.360Z,309.10
2023-12-15T02:04:02.906Z,312.50
2023-12-15T02:04:35.451Z,329.70
2023-12-15T02:05:08.122Z,318.20
2023-12-15T02:05:40.422Z,303.40
2023-12-15T02:06:12.999Z,306.80
2023-12-15T02:06:45.377Z,319.50
2023-12-15T02:07:17.933Z,325.80
2023-12-15T02:07:50.472Z,315.20
2023-12-15T02:08:23.018Z,310.90
2023-12-15T02:08:55.487Z,315.00
2023-12-15T02:09:27.996Z,288.20
2023-12-15T02:10:00.476Z,264.50
2023-12-15T02:10:32.951Z,282.00
2023-12-15T02:11:05.488Z,300.60
2023-12-15T02:11:38.041Z,307.80
2023-12-15T02:12:10.511Z,317.90
2023-12-15T02:12:43.008Z,271.80
2023-12-15T02:13:15.510Z,300.40
2023-12-15T02:13:48.067Z,271.40
2023-12-15T02:14:20.648Z,272.20
2023-12-15T02:14:53.117Z,292.00
2023-12-15T02:15:25.720Z,272.40
2023-12-15T02:15:59.127Z,312.20
2023-12-15T02:16:31.717Z,331.30
2023-12-15T02:17:04.960Z,332.70
2023-12-15T02:17:37.890Z,339.60
2023-12-15T02:18:09.968Z,351.50
2023-12-15T02:18:42.444Z,355.70
2023-12-15T02:19:14.956Z,349.40
2023-12-15T02:19:47.445Z,348.30
2023-12-15T02:20:19.948Z,349.80
2023-12-15T02:20:52.520Z,323.40
2023-12-15T02:21:25.041Z,320.50
2023-12-15T02:21:57.518Z,334.40
2023-12-15T02:22:30.128Z,300.80
2023-12-15T02:23:02.805Z,324.00
2023-12-15T02:23:35.345Z,322.00
2023-12-15T02:24:07.842Z,340.30
2023-12-15T02:24:40.362Z,321.50
2023-12-15T02:25:12.911Z,317.40
2023-12-15T02:25:45.454Z,318.90
2023-12-15T02:26:17.938Z,319.00
2023-12-15T02:26:50.332Z,326.90
2023-12-15T02:27:22.769Z,346.20
2023-12-15T02:27:55.338Z,330.60
2023-12-15T02:28:27.648Z,316.20
2023-12-15T02:29:00.118Z,309.70
2023-12-15T02:29:32.672Z,260.90
2023-12-15T02:30:05.128Z,284.00
2023-12-15T02:30:37.584Z,318.60
2023-12-15T02:31:10.091Z,338.70
2023-12-15T02:31:42.599Z,311.70
2023-12-15T02:32:15.137Z,321.80
2023-12-15T02:32:47.644Z,320.00
2023-12-15T02:33:20.141Z,306.70
2023-12-15T02:33:52.568Z,326.40
2023-12-15T02:34:25.032Z,329.80
2023-12-15T02:34:57.574Z,312.40
2023-12-15T02:35:30.828Z,291.20
2023-12-15T02:36:03.224Z,265.50
2023-12-15T02:36:35.650Z,288.30
2023-12-15T02:37:08.170Z,285.30
2023-12-15T02:37:40.675Z,292.00
2023-12-15T02:38:13.206Z,300.80
2023-12-15T02:38:45.651Z,303.50
2023-12-15T02:39:18.117Z,323.50
2023-12-15T02:39:50.671Z,339.30
2023-12-15T02:40:23.179Z,340.70
2023-12-15T02:40:55.731Z,320.20
2023-12-15T02:41:28.304Z,332.60
2023-12-15T02:42:00.758Z,317.90
2023-12-15T02:42:33.206Z,319.90
2023-12-15T02:43:05.716Z,331.80
2023-12-15T02:43:38.214Z,348.30
2023-12-15T02:44:10.716Z,367.90
2023-12-15T02:44:43.141Z,340.90
2023-12-15T02:45:15.625Z,308.20
2023-12-15T02:45:48.051Z,283.90
2023-12-15T02:46:20.503Z,309.40
2023-12-15T02:46:52.977Z,331.80
2023-12-15T02:47:25.628Z,334.70
2023-12-15T02:47:58.176Z,335.70
2023-12-15T02:48:30.658Z,331.90
2023-12-15T02:49:03.132Z,282.80
2023-12-15T02:49:35.554Z,333.40
2023-12-15T02:50:08.121Z,322.80
2023-12-15T02:50:40.549Z,334.60
2023-12-15T02:51:13.065Z,340.90
2023-12-15T02:51:45.572Z,331.90
2023-12-15T02:52:18.027Z,358.60
2023-12-15T02:52:50.613Z,337.80
2023-12-15T02:53:23.209Z,344.40
2023-12-15T02:53:55.705Z,300.20
2023-12-15T02:54:28.226Z,300.10
2023-12-15T02:55:00.749Z,303.80
2023-12-15T02:55:33.305Z,356.80
2023-12-15T02:56:05.886Z,344.50
2023-12-15T02:56:38.300Z,336.10
2023-12-15T02:57:10.775Z,323.70
2023-12-15T02:57:43.208Z,313.30
2023-12-15T02:58:15.737Z,327.70
2023-12-15T02:58:48.220Z,319.80
2023-12-15T02:59:20.660Z,318.00
2023-12-15T02:59:53.106Z,345.10
2023-12-15T03:00:25.628Z,336.00
2023-12-15T03:00:58.084Z,319.60
2023-12-15T03:01:30.508Z,334.30
2023-12-15T03:02:03.035Z,343.30
2023-12-15T03:02:35.568Z,336.90
2023-12-15T03:03:08.085Z,311.40
2023-12-15T03:03:40.523Z,298.20
2023-12-15T03:04:12.980Z,305.10
2023-12-15T03:04:45.501Z,315.20
2023-12-15T03:05:18.031Z,312.90
2023-12-15T03:05:50.621Z,290.70
2023-12-15T03:06:23.128Z,281.90
2023-12-15T03:06:55.604Z,293.50
2023-12-15T03:07:28.133Z,308.90
2023-12-15T03:08:00.713Z,321.80
2023-12-15T03:08:33.148Z,329.10
2023-12-15T03:09:05.613Z,302.30
2023-12-15T03:09:38.060Z,312.10
2023-12-15T03:10:10.572Z,298.00
2023-12-15T03:10:43.102Z,300.60
2023-12-15T03:11:15.634Z,310.20
2023-12-15T03:11:48.120Z,314.90
2023-12-15T03:12:20.562Z,329.00
2023-12-15T03:12:53.014Z,317.30
2023-12-15T03:13:25.504Z,313.00
2023-12-15T03:13:58.012Z,313.70
2023-12-15T03:14:30.523Z,317.10
2023-12-15T03:15:02.954Z,317.90
2023-12-15T03:15:35.364Z,329.30
2023-12-15T03:16:07.792Z,325.40
2023-12-15T03:16:40.421Z,315.70
2023-12-15T03:17:12.864Z,318.50
2023-12-15T03:17:45.447Z,318.30
2023-12-15T03:18:17.902Z,326.80
2023-12-15T03:18:50.401Z,319.70
2023-12-15T03:19:22.981Z,311.30
2023-12-15T03:19:55.506Z,284.00
2023-12-15T03:20:27.894Z,311.00
2023-12-15T03:21:00.338Z,295.40
2023-12-15T03:21:32.841Z,297.00
2023-12-15T03:22:05.392Z,298.40
2023-12-15T03:22:37.853Z,295.80
2023-12-15T03:23:10.396Z,341.60
2023-12-15T03:23:42.867Z,322.50
2023-12-15T03:24:15.293Z,315.00
2023-12-15T03:24:47.740Z,308.90
2023-12-15T03:25:20.212Z,315.50
2023-12-15T03:25:52.721Z,276.90
2023-12-15T03:26:25.258Z,291.40
2023-12-15T03:26:57.724Z,313.80
2023-12-15T03:27:30.248Z,316.50
2023-12-15T03:28:02.700Z,331.10
2023-12-15T03:28:35.139Z,328.30
2023-12-15T03:29:07.662Z,313.70
2023-12-15T03:29:40.116Z,299.90
2023-12-15T03:30:12.582Z,303.10
2023-12-15T03:30:45.049Z,306.90
2023-12-15T03:31:17.455Z,311.40
2023-12-15T03:31:49.927Z,295.30
2023-12-15T03:32:22.601Z,298.60
2023-12-15T03:32:55.141Z,302.40
2023-12-15T03:33:27.834Z,298.20
2023-12-15T03:34:00.262Z,307.50
2023-12-15T03:34:32.749Z,304.60
2023-12-15T03:35:05.319Z,323.00
2023-12-15T03:35:37.773Z,336.00
2023-12-15T03:36:10.341Z,313.00
2023-12-15T03:36:42.849Z,320.20
2023-12-15T03:37:15.366Z,311.10
2023-12-15T03:37:47.840Z,313.50
2023-12-15T03:38:20.427Z,260.50
2023-12-15T03:38:52.934Z,293.60
2023-12-15T03:39:25.403Z,341.40
2023-12-15T03:39:57.902Z,337.60
2023-12-15T03:40:30.354Z,343.80
2023-12-15T03:41:03.012Z,337.60
2023-12-15T03:41:35.720Z,353.20
2023-12-15T03:42:08.226Z,318.00
2023-12-15T03:42:40.720Z,310.40
2023-12-15T03:43:13.177Z,313.00
2023-12-15T03:43:45.725Z,326.50
2023-12-15T03:44:18.338Z,300.50
2023-12-15T03:44:50.759Z,334.80
2023-12-15T03:45:23.215Z,327.10
2023-12-15T03:45:55.690Z,307.90
2023-12-15T03:46:28.167Z,321.70
2023-12-15T03:47:00.665Z,293.10
2023-12-15T03:47:33.284Z,304.70
2023-12-15T03:48:05.796Z,305.20
2023-12-15T03:48:38.219Z,335.90
2023-12-15T03:49:10.790Z,323.30
2023-12-15T03:49:43.242Z,321.10
2023-12-15T03:50:15.757Z,326.20
2023-12-15T03:50:48.151Z,332.40
2023-12-15T03:51:20.693Z,325.60
2023-12-15T03:51:53.240Z,329.20
2023-12-15T03:52:25.804Z,340.90
2023-12-15T03:52:58.379Z,325.00
2023-12-15T03:53:30.873Z,321.40
2023-12-15T03:54:03.359Z,316.40
2023-12-15T03:54:35.841Z,312.10
2023-12-15T03:55:08.382Z,301.40
2023-12-15T03:55:40.823Z,302.10
2023-12-15T03:56:13.350Z,326.60
2023-12-15T03:56:45.906Z,338.40
2023-12-15T03:57:18.430Z,344.70
2023-12-15T03:57:50.874Z,350.30
2023-12-15T03:58:23.348Z,341.80
2023-12-15T03:58:55.951Z,330.60
2023-12-15T03:59:33.117Z,326.80
2023-12-15T04:00:05.447Z,309.90
2023-12-15T04:00:38.017Z,319.30
2023-12-15T04:01:10.558Z,314.00
2023-12-15T04:01:42.971Z,318.70
2023-12-15T04:02:15.447Z,324.10
2023-12-15T04:02:47.980Z,331.30
2023-12-15T04:03:20.587Z,331.00
2023-12-15T04:03:53.086Z,339.20
2023-12-15T04:04:25.546Z,318.60
2023-12-15T04:04:58.071Z,309.20
2023-12-15T04:05:30.622Z,330.50
2023-12-15T04:06:03.350Z,335.00
2023-12-15T04:06:35.688Z,315.60
2023-12-15T04:07:08.166Z,319.80
2023-12-15T04:07:40.645Z,292.80
2023-12-15T04:08:13.193Z,301.00
2023-12-15T04:08:45.717Z,294.70
2023-12-15T04:09:18.274Z,308.50
2023-12-15T04:09:50.760Z,311.40
2023-12-15T04:10:23.212Z,312.70
2023-12-15T04:10:55.774Z,313.10
2023-12-15T04:11:28.233Z,323.40
2023-12-15T04:12:00.773Z,315.70
2023-12-15T04:12:33.330Z,303.90
2023-12-15T04:13:05.835Z,331.70
2023-12-15T04:13:38.300Z,306.00
2023-12-15T04:14:10.798Z,298.20
2023-12-15T04:14:43.498Z,303.30
2023-12-15T04:15:16.002Z,307.40
2023-12-15T04:15:48.479Z,319.40
2023-12-15T04:16:20.934Z,320.50
2023-12-15T04:16:53.662Z,320.30
2023-12-15T04:17:26.297Z,297.80
2023-12-15T04:17:58.961Z,303.30
2023-12-15T04:18:31.416Z,318.70
2023-12-15T04:19:03.899Z,315.50
2023-12-15T04:19:36.410Z,312.30
2023-12-15T04:20:08.930Z,321.10
2023-12-15T04:20:41.333Z,326.70
2023-12-15T04:21:13.817Z,298.80
2023-12-15T04:21:46.361Z,296.70
2023-12-15T04:22:18.894Z,294.10
2023-12-15T04:22:51.335Z,294.90
2023-12-15T04:23:23.777Z,288.40
2023-12-15T04:23:56.209Z,271.90
2023-12-15T04:24:28.650Z,276.90
2023-12-15T04:25:01.257Z,278.90
2023-12-15T04:25:33.803Z,291.10
2023-12-15T04:26:06.294Z,313.50
2023-12-15T04:26:38.748Z,281.20
2023-12-15T04:27:11.292Z,284.30
2023-12-15T04:27:44.018Z,284.10
2023-12-15T04:28:16.162Z,301.00
2023-12-15T04:28:48.635Z,310.80
2023-12-15T04:29:21.122Z,311.60
2023-12-15T04:29:53.602Z,317.50
2023-12-15T04:30:26.100Z,319.00
2023-12-15T04:30:58.502Z,315.60
2023-12-15T04:31:30.930Z,321.40
2023-12-15T04:32:03.439Z,316.70
2023-12-15T04:32:36.058Z,318.70
2023-12-15T04:33:08.452Z,305.40
2023-12-15T04:33:40.920Z,304.20
2023-12-15T04:34:13.505Z,308.30
2023-12-15T04:34:45.968Z,311.40
2023-12-15T04:35:18.440Z,321.20
2023-12-15T04:35:50.866Z,322.60
2023-12-15T04:36:23.369Z,332.30
2023-12-15T04:36:55.797Z,317.10
2023-12-15T04:37:28.256Z,317.20
2023-12-15T04:38:00.785Z,321.00
2023-12-15T04:38:33.287Z,320.10
2023-12-15T04:39:05.800Z,319.30
2023-12-15T04:39:38.301Z,341.30
2023-12-15T04:40:10.826Z,324.10
2023-12-15T04:40:43.305Z,323.10
2023-12-15T04:41:15.788Z,317.30
2023-12-15T04:41:48.288Z,299.10
2023-12-15T04:42:20.806Z,292.50
2023-12-15T04:42:53.342Z,306.00
2023-12-15T04:43:25.797Z,297.10
2023-12-15T04:43:58.244Z,271.90
2023-12-15T04:44:30.709Z,278.60
2023-12-15T04:45:03.179Z,285.20
2023-12-15T04:45:35.700Z,291.80
2023-12-15T04:46:08.216Z,309.50
2023-12-15T04:46:40.677Z,297.30
2023-12-15T04:47:13.211Z,298.60
2023-12-15T04:47:45.977Z,310.60
2023-12-15T04:48:18.394Z,308.10
2023-12-15T04:48:50.985Z,303.30
2023-12-15T04:49:23.415Z,304.10
2023-12-15T04:49:55.895Z,296.70
2023-12-15T04:50:28.360Z,280.80
2023-12-15T04:51:00.817Z,294.10
2023-12-15T04:51:33.254Z,285.90
2023-12-15T04:52:05.717Z,306.90
2023-12-15T04:52:38.157Z,304.20
2023-12-15T04:53:12.331Z,293.90
2023-12-15T04:53:45.541Z,312.10
2023-12-15T04:54:18.065Z,324.80
2023-12-15T04:54:50.582Z,326.30
2023-12-15T04:55:23.088Z,348.70
2023-12-15T04:55:55.680Z,314.90
2023-12-15T04:56:28.189Z,311.90
2023-12-15T04:57:00.675Z,314.50
2023-12-15T04:57:33.193Z,311.80
2023-12-15T04:58:05.649Z,324.50
2023-12-15T04:58:38.154Z,323.70
2023-12-15T04:59:10.789Z,347.50
2023-12-15T04:59:43.220Z,344.20
2023-12-15T05:00:15.714Z,346.40
2023-12-15T05:00:48.278Z,349.70
2023-12-15T05:01:20.759Z,325.90
2023-12-15T05:01:53.290Z,319.70
2023-12-15T05:02:25.911Z,321.80
2023-12-15T05:02:58.509Z,358.20
2023-12-15T05:03:31.086Z,348.40
2023-12-15T05:04:03.552Z,337.90
2023-12-15T05:04:37.305Z,329.00
2023-12-15T05:05:08.761Z,333.60
2023-12-15T05:05:41.334Z,318.20
2023-12-15T05:06:13.819Z,315.00
2023-12-15T05:06:46.249Z,328.50
2023-12-15T05:07:18.717Z,343.20
2023-12-15T05:07:51.194Z,349.70
2023-12-15T05:08:23.703Z,354.00
2023-12-15T05:08:56.119Z,335.10
2023-12-15T05:09:28.571Z,337.10
2023-12-15T05:10:01.104Z,334.30
2023-12-15T05:10:33.548Z,333.90
2023-12-15T05:11:06.049Z,352.80
2023-12-15T05:11:38.544Z,350.30
2023-12-15T05:12:11.015Z,307.50
2023-12-15T05:12:43.541Z,337.80
2023-12-15T05:13:16.032Z,349.50
2023-12-15T05:13:48.482Z,372.20
2023-12-15T05:14:21.042Z,370.10
2023-12-15T05:14:53.509Z,364.00
2023-12-15T05:15:26.013Z,365.80
2023-12-15T05:15:58.470Z,368.70
2023-12-15T05:16:30.933Z,376.80
2023-12-15T05:17:03.455Z,371.20
2023-12-15T05:17:36.312Z,372.20
2023-12-15T05:18:08.700Z,371.70
2023-12-15T05:18:41.076Z,374.40
2023-12-15T05:19:13.455Z,372.20
2023-12-15T05:19:45.868Z,351.30
2023-12-15T05:20:18.403Z,360.10
2023-12-15T05:20:50.944Z,346.90
2023-12-15T05:21:23.397Z,346.10
2023-12-15T05:21:55.957Z,348.80
2023-12-15T05:22:28.486Z,362.30
2023-12-15T05:23:01.084Z,355.20
2023-12-15T05:23:33.668Z,325.60
2023-12-15T05:24:06.073Z,335.60
2023-12-15T05:24:38.563Z,352.40
2023-12-15T05:25:11.028Z,352.30
2023-12-15T05:25:43.471Z,331.30
2023-12-15T05:26:16.055Z,334.60
2023-12-15T05:26:48.552Z,348.40
2023-12-15T05:27:21.059Z,352.00
2023-12-15T05:27:53.511Z,311.80
2023-12-15T05:28:25.983Z,359.50
2023-12-15T05:28:59.891Z,374.40
2023-12-15T05:29:31.086Z,369.20
2023-12-15T05:30:03.663Z,355.10
2023-12-15T05:30:36.087Z,351.20
2023-12-15T05:31:08.588Z,358.30
2023-12-15T05:31:41.117Z,360.90
2023-12-15T05:32:13.652Z,359.00
2023-12-15T05:32:46.638Z,475.20
2023-12-15T05:33:19.433Z,393.40
2023-12-15T05:33:51.717Z,364.60
2023-12-15T05:34:24.138Z,338.30
2023-12-15T05:34:56.638Z,350.40
2023-12-15T05:35:29.220Z,368.80
2023-12-15T05:36:01.651Z,329.80
2023-12-15T05:36:34.124Z,358.90
2023-12-15T05:37:06.589Z,354.10
2023-12-15T05:37:40.142Z,349.30
2023-12-15T05:38:13.889Z,445.60
2023-12-15T05:38:46.406Z,354.50
2023-12-15T05:39:18.904Z,379.40
2023-12-15T05:39:51.380Z,357.80
2023-12-15T05:40:23.911Z,348.70
2023-12-15T05:40:56.425Z,347.50
2023-12-15T05:41:28.852Z,345.40
2023-12-15T05:42:01.323Z,365.90
2023-12-15T05:42:33.843Z,373.20
2023-12-15T05:43:06.325Z,365.20
2023-12-15T05:43:38.749Z,378.10
2023-12-15T05:44:11.263Z,358.40
2023-12-15T05:44:43.776Z,351.10
2023-12-15T05:45:16.175Z,340.10
2023-12-15T05:45:48.665Z,340.60
2023-12-15T05:46:21.186Z,358.50
2023-12-15T05:46:53.747Z,371.80
2023-12-15T05:47:26.273Z,343.30
2023-12-15T05:47:58.753Z,375.70
2023-12-15T05:48:31.314Z,354.00
2023-12-15T05:49:03.998Z,313.40
2023-12-15T05:49:36.151Z,329.60
2023-12-15T05:50:08.740Z,343.10
2023-12-15T05:50:41.118Z,362.00
2023-12-15T05:51:13.550Z,345.20
2023-12-15T05:51:46.004Z,337.90
2023-12-15T05:52:18.529Z,348.50
2023-12-15T05:52:51.040Z,324.40
2023-12-15T05:53:23.530Z,322.00
2023-12-15T05:53:58.467Z,327.30
2023-12-15T05:54:28.410Z,337.40
2023-12-15T05:55:00.874Z,344.90
2023-12-15T05:55:33.379Z,337.30
2023-12-15T05:56:05.840Z,344.80
2023-12-15T05:56:38.299Z,349.80
2023-12-15T05:57:12.790Z,354.90
2023-12-15T05:57:43.257Z,367.20
2023-12-15T05:58:15.693Z,370.10
2023-12-15T05:58:48.156Z,381.00
2023-12-15T05:59:20.607Z,364.10
2023-12-15T05:59:53.079Z,362.80
2023-12-15T06:00:25.497Z,348.70
2023-12-15T06:00:58.011Z,350.60
2023-12-15T06:01:30.483Z,358.30
2023-12-15T06:02:02.975Z,370.30
2023-12-15T06:02:35.451Z,370.70
2023-12-15T06:03:07.898Z,375.00
2023-12-15T06:03:40.822Z,351.40
2023-12-15T06:04:13.270Z,357.40
2023-12-15T06:04:45.762Z,367.00
2023-12-15T06:05:18.314Z,360.50
2023-12-15T06:05:50.751Z,346.90
2023-12-15T06:06:23.228Z,364.60
2023-12-15T06:06:55.679Z,356.40
2023-12-15T06:07:28.186Z,363.20
2023-12-15T06:08:00.670Z,362.80
2023-12-15T06:08:33.164Z,373.80
2023-12-15T06:09:05.620Z,370.50
2023-12-15T06:09:38.569Z,352.80
2023-12-15T06:10:10.638Z,344.20
2023-12-15T06:10:43.166Z,361.00
2023-12-15T06:11:15.646Z,337.20
2023-12-15T06:11:48.110Z,339.30
2023-12-15T06:12:20.583Z,265.50
2023-12-15T06:12:53.087Z,299.00
2023-12-15T06:13:25.608Z,334.50
2023-12-15T06:13:58.287Z,390.40
2023-12-15T06:14:30.689Z,366.50
2023-12-15T06:15:03.204Z,356.70
2023-12-15T06:15:35.660Z,365.60
2023-12-15T06:16:08.090Z,340.00
2023-12-15T06:16:40.598Z,337.90
2023-12-15T06:17:13.108Z,337.60
2023-12-15T06:17:45.916Z,352.80
2023-12-15T06:18:18.286Z,362.60
2023-12-15T06:18:50.786Z,365.90
2023-12-15T06:19:23.153Z,342.20
2023-12-15T06:19:55.661Z,350.80
2023-12-15T06:20:28.411Z,351.60
2023-12-15T06:21:00.852Z,351.10
2023-12-15T06:21:33.452Z,355.90
2023-12-15T06:22:05.987Z,362.40
2023-12-15T06:22:38.528Z,376.00
2023-12-15T06:23:11.124Z,392.40
2023-12-15T06:23:43.516Z,375.70
2023-12-15T06:24:16.021Z,344.90
2023-12-15T06:24:48.488Z,341.50
2023-12-15T06:25:20.983Z,332.50
2023-12-15T06:25:53.622Z,352.00
2023-12-15T06:26:26.127Z,362.40
2023-12-15T06:26:58.614Z,343.90
2023-12-15T06:27:31.064Z,346.80
2023-12-15T06:28:03.517Z,347.10
2023-12-15T06:28:36.050Z,313.40
2023-12-15T06:29:08.606Z,341.70
2023-12-15T06:29:41.050Z,330.10
2023-12-15T06:30:13.498Z,338.60
2023-12-15T06:30:46.054Z,364.30
2023-12-15T06:31:18.524Z,362.70
2023-12-15T06:31:51.048Z,353.50
2023-12-15T06:32:23.553Z,350.50
2023-12-15T06:32:56.006Z,340.70
2023-12-15T06:33:28.541Z,311.10
2023-12-15T06:34:01.080Z,327.00
2023-12-15T06:34:33.462Z,349.30
2023-12-15T06:35:05.949Z,357.10
2023-12-15T06:35:38.432Z,334.00
2023-12-15T06:36:10.852Z,331.40
2023-12-15T06:36:43.318Z,323.60
2023-12-15T06:37:15.820Z,316.00
2023-12-15T06:37:48.278Z,333.70
2023-12-15T06:38:20.868Z,339.10
2023-12-15T06:38:53.277Z,337.50
2023-12-15T06:39:25.729Z,334.20
2023-12-15T06:39:58.202Z,322.50
2023-12-15T06:40:30.637Z,307.50
2023-12-15T06:41:03.147Z,310.00
2023-12-15T06:41:35.599Z,311.60
2023-12-15T06:42:08.046Z,313.20
2023-12-15T06:42:40.533Z,316.70
2023-12-15T06:43:13.000Z,298.30
2023-12-15T06:43:45.493Z,314.70
2023-12-15T06:44:18.044Z,277.00
2023-12-15T06:44:50.469Z,293.80
2023-12-15T06:45:23.001Z,329.50
2023-12-15T06:45:55.525Z,336.60